createdAt,value
2022-12-03T00:00:01.410Z,58.83
2022-12-03T00:05:03.251Z,60.55
2022-12-03T00:10:06.021Z,60.50
2022-12-03T00:15:09.656Z,55.65
2022-12-03T00:20:21.626Z,63.22
2022-12-03T00:25:23.502Z,55.05
2022-12-03T00:30:25.391Z,56.85
2022-12-03T00:35:27.178Z,67.72
2022-12-03T00:40:28.986Z,63.95
2022-12-03T00:45:30.998Z,61.50
2022-12-03T00:50:32.878Z,58.78
2022-12-03T00:55:34.647Z,56.22
2022-12-03T01:00:36.942Z,62.67
2022-12-03T01:05:38.959Z,57.00
2022-12-03T01:10:40.762Z,61.53
2022-12-03T01:15:42.683Z,62.22
2022-12-03T01:20:44.705Z,59.38
2022-12-03T01:25:48.189Z,61.25
2022-12-03T01:31:08.634Z,62.58
2022-12-03T01:36:10.452Z,58.83
2022-12-03T01:41:12.326Z,58.20
2022-12-03T01:46:16.618Z,57.67
2022-12-03T01:51:18.908Z,62.78
2022-12-03T01:56:20.878Z,59.70
2022-12-03T02:01:22.771Z,61.88
2022-12-03T02:06:28.581Z,55.45
2022-12-03T02:11:33.451Z,55.28
2022-12-03T02:16:37.607Z,61.55
2022-12-03T02:22:06.847Z,58.42
2022-12-03T02:27:08.618Z,62.92
2022-12-03T02:32:10.502Z,60.15
2022-12-03T02:37:20.062Z,64.15
2022-12-03T02:42:37.691Z,62.03
2022-12-03T02:47:46.335Z,58.80
2022-12-03T02:52:48.599Z,61.83
2022-12-03T02:57:51.334Z,63.70
2022-12-03T03:02:53.230Z,63.45
2022-12-03T03:07:58.279Z,56.97
2022-12-03T03:13:09.304Z,58.92
2022-12-03T03:18:13.410Z,65.03
2022-12-03T03:23:20.556Z,57.92
2022-12-03T03:28:22.743Z,57.15
2022-12-03T03:33:24.986Z,59.10
2022-12-03T03:38:27.963Z,59.20
2022-12-03T03:43:30.913Z,53.35
2022-12-03T03:48:34.556Z,55.10
2022-12-03T03:53:42.831Z,53.03
2022-12-03T03:58:44.683Z,53.05
2022-12-03T04:03:46.649Z,53.50
2022-12-03T04:08:48.535Z,48.63
2022-12-03T04:13:50.314Z,48.78
2022-12-03T04:18:52.227Z,52.80
2022-12-03T04:23:54.083Z,50.33
2022-12-03T04:28:55.996Z,42.33
2022-12-03T04:34:16.146Z,49.17
2022-12-03T04:39:17.921Z,48.90
2022-12-03T04:44:37.814Z,50.55
2022-12-03T04:49:42.756Z,48.15
2022-12-03T04:54:44.985Z,49.90
2022-12-03T04:59:47.830Z,48.53
2022-12-03T05:04:49.621Z,45.08
2022-12-03T05:09:51.535Z,46.45
2022-12-03T05:14:53.724Z,49.08
2022-12-03T05:20:14.126Z,47.40
2022-12-03T05:25:16.005Z,41.72
2022-12-03T05:30:17.922Z,39.42
2022-12-03T05:35:19.878Z,39.72
2022-12-03T05:40:21.802Z,43.75
2022-12-03T05:45:27.862Z,45.45
2022-12-03T05:50:32.758Z,47.25
2022-12-03T05:55:48.661Z,43.03
2022-12-03T06:00:50.426Z,46.20
2022-12-03T06:05:52.230Z,44.38
2022-12-03T06:10:54.002Z,43.63
2022-12-03T06:15:55.864Z,45.65
2022-12-03T06:20:57.711Z,44.58
2022-12-03T06:25:59.469Z,47.33
2022-12-03T06:31:01.441Z,46.17
2022-12-03T06:36:03.300Z,49.60
2022-12-03T06:41:05.324Z,48.38
2022-12-03T06:46:07.113Z,47.00
2022-12-03T06:51:08.946Z,46.72
2022-12-03T06:56:10.834Z,46.45
2022-12-03T07:01:12.677Z,46.25
2022-12-03T07:06:14.981Z,45.53
2022-12-03T07:11:31.790Z,40.10
2022-12-03T07:16:35.079Z,59.00
2022-12-03T07:21:37.076Z,47.72
2022-12-03T07:26:39.099Z,38.53
2022-12-03T07:31:41.014Z,44.40
2022-12-03T07:36:42.892Z,42.97
2022-12-03T07:41:44.730Z,38.75
2022-12-03T07:46:46.561Z,38.25
2022-12-03T07:51:54.163Z,44.33
2022-12-03T08:02:03.936Z,60.10
2022-12-03T08:07:06.293Z,48.38
2022-12-03T08:12:17.108Z,54.10
2022-12-03T08:17:19.836Z,46.22
2022-12-03T08:22:22.305Z,45.38
2022-12-03T08:27:24.188Z,43.88
2022-12-03T08:32:26.160Z,41.25
2022-12-03T08:37:29.755Z,37.65
2022-12-03T08:42:42.418Z,37.38
2022-12-03T08:47:44.283Z,35.22
2022-12-03T08:52:46.061Z,33.50
2022-12-03T08:57:47.832Z,34.50
2022-12-03T09:03:01.116Z,32.40
2022-12-03T09:08:03.079Z,63.45
2022-12-03T09:13:04.883Z,27.55
2022-12-03T09:18:07.578Z,27.30
2022-12-03T09:23:09.659Z,23.40
2022-12-03T09:28:11.447Z,27.08
2022-12-03T09:33:14.045Z,30.60
2022-12-03T09:38:15.859Z,28.75
2022-12-03T09:43:18.602Z,40.03
2022-12-03T09:48:21.249Z,29.25
2022-12-03T09:53:25.966Z,30.98
2022-12-03T09:58:43.177Z,32.13
2022-12-03T10:03:54.354Z,20.90
2022-12-03T10:08:56.739Z,20.83
2022-12-03T10:13:59.041Z,23.35
2022-12-03T10:19:01.491Z,22.52
2022-12-03T10:24:18.477Z,23.17
2022-12-03T10:29:34.236Z,19.23
2022-12-03T10:34:38.537Z,21.75
2022-12-03T10:40:00.324Z,22.00
2022-12-03T10:45:22.797Z,20.58
2022-12-03T10:50:24.623Z,21.67
2022-12-03T10:55:28.909Z,21.00
2022-12-03T11:00:30.683Z,20.98
2022-12-03T11:05:33.683Z,21.83
2022-12-03T11:10:35.840Z,22.73
2022-12-03T11:15:44.133Z,18.58
2022-12-03T11:20:45.927Z,18.95
2022-12-03T11:25:50.460Z,19.65
2022-12-03T11:30:53.325Z,20.60
2022-12-03T11:36:04.257Z,18.02
2022-12-03T11:41:18.077Z,18.73
2022-12-03T11:46:23.078Z,17.45
2022-12-03T11:51:27.613Z,19.58
2022-12-03T11:56:30.528Z,19.00
2022-12-03T12:01:39.111Z,19.15
2022-12-03T12:06:44.322Z,20.60
2022-12-03T12:11:46.150Z,16.58
2022-12-03T12:16:52.263Z,19.55
2022-12-03T12:21:54.515Z,35.72
2022-12-03T12:26:58.047Z,16.65
2022-12-03T12:32:08.859Z,17.52
2022-12-03T12:37:19.066Z,18.27
2022-12-03T12:42:35.218Z,17.20
2022-12-03T12:47:37.202Z,18.10
2022-12-03T12:52:49.118Z,20.55
2022-12-03T12:57:51.541Z,17.48
2022-12-03T13:03:01.365Z,18.60
2022-12-03T13:08:08.817Z,18.73
2022-12-03T13:13:20.524Z,19.42
2022-12-03T13:18:33.761Z,19.38
2022-12-03T13:23:35.642Z,20.55
2022-12-03T13:28:37.468Z,20.73
2022-12-03T13:33:39.358Z,21.00
2022-12-03T13:38:41.195Z,20.35
2022-12-03T13:43:44.420Z,19.38
2022-12-03T13:48:47.518Z,19.63
2022-12-03T13:53:49.351Z,21.40
2022-12-03T13:58:51.130Z,21.98
2022-12-03T14:03:52.979Z,20.92
2022-12-03T14:08:54.816Z,23.02
2022-12-03T14:13:56.599Z,27.13
2022-12-03T14:18:58.365Z,23.83
2022-12-03T14:24:00.224Z,21.92
2022-12-03T14:29:07.163Z,21.63
2022-12-03T14:34:10.463Z,21.90
2022-12-03T14:39:12.331Z,21.70
2022-12-03T14:44:14.223Z,22.60
2022-12-03T14:49:16.187Z,23.02
2022-12-03T14:54:17.974Z,21.40
2022-12-03T14:59:25.874Z,21.08
2022-12-03T15:04:29.326Z,23.13
2022-12-03T15:09:31.194Z,23.42
2022-12-03T15:14:33.015Z,21.20
2022-12-03T15:19:35.147Z,20.75
2022-12-03T15:24:36.947Z,21.63
2022-12-03T15:29:39.935Z,21.70
2022-12-03T15:34:41.678Z,20.55
2022-12-03T15:39:48.396Z,21.58
2022-12-03T15:44:50.338Z,24.70
2022-12-03T15:49:52.252Z,23.42
2022-12-03T15:54:55.234Z,27.75
2022-12-03T15:59:58.075Z,23.63
2022-12-03T16:05:01.538Z,21.70
2022-12-03T16:10:05.106Z,21.83
2022-12-03T16:15:07.319Z,21.80
2022-12-03T16:20:09.670Z,18.85
2022-12-03T16:25:11.602Z,19.23
2022-12-03T16:30:13.903Z,20.50
2022-12-03T16:35:15.802Z,19.77
2022-12-03T16:40:17.662Z,21.45
2022-12-03T16:45:33.066Z,22.30
2022-12-03T16:50:37.547Z,19.48
2022-12-03T16:55:39.377Z,22.67
2022-12-03T17:00:41.231Z,20.52
2022-12-03T17:05:43.422Z,22.48
2022-12-03T17:10:45.338Z,24.48
2022-12-03T17:15:47.160Z,28.50
2022-12-03T17:20:48.989Z,22.73
2022-12-03T17:25:50.766Z,21.98
2022-12-03T17:30:52.540Z,21.35
2022-12-03T17:35:54.378Z,26.38
2022-12-03T17:40:56.216Z,23.08
2022-12-03T17:46:00.016Z,24.35
2022-12-03T17:51:02.440Z,22.92
2022-12-03T17:56:04.847Z,19.15
2022-12-03T18:01:08.569Z,19.52
2022-12-03T18:06:10.384Z,19.75
2022-12-03T18:11:12.327Z,18.75
2022-12-03T18:16:15.344Z,17.25
2022-12-03T18:21:17.266Z,15.35
2022-12-03T18:26:19.048Z,20.42
2022-12-03T18:31:22.160Z,19.77
2022-12-03T18:36:26.930Z,16.20
2022-12-03T18:41:29.074Z,21.02
2022-12-03T18:46:52.345Z,20.95
2022-12-03T18:51:58.889Z,19.83
2022-12-03T18:57:00.922Z,23.00
2022-12-03T19:02:02.826Z,18.13
2022-12-03T19:07:04.869Z,19.65
2022-12-03T19:12:12.837Z,23.65
2022-12-03T19:17:16.357Z,26.90
2022-12-03T19:22:18.138Z,27.08
2022-12-03T19:27:19.929Z,23.33
2022-12-03T19:32:21.698Z,19.10
2022-12-03T19:37:23.466Z,19.27
2022-12-03T19:42:25.324Z,20.10
2022-12-03T19:47:27.174Z,20.42
2022-12-03T19:52:28.968Z,18.85
2022-12-03T19:57:30.735Z,23.95
2022-12-03T20:02:32.566Z,26.50
2022-12-03T20:07:34.433Z,27.33
2022-12-03T20:12:36.262Z,25.20
2022-12-03T20:17:38.018Z,26.35
2022-12-03T20:22:39.876Z,24.02
2022-12-03T20:27:41.803Z,25.52
2022-12-03T20:32:45.661Z,19.75
2022-12-03T20:37:47.646Z,18.50
2022-12-03T20:42:49.401Z,23.52
2022-12-03T20:47:51.201Z,23.33
2022-12-03T20:53:22.556Z,24.23
2022-12-03T20:58:15.023Z,23.42
2022-12-03T21:03:17.151Z,26.52
2022-12-03T21:08:39.279Z,24.08
2022-12-03T21:13:44.156Z,23.33
2022-12-03T21:18:46.572Z,22.77
2022-12-03T21:23:48.395Z,21.90
2022-12-03T21:28:52.595Z,34.42
2022-12-03T21:33:55.588Z,24.50
2022-12-03T21:38:57.390Z,25.48
2022-12-03T21:44:00.465Z,21.38
2022-12-03T21:49:02.404Z,18.60
2022-12-03T21:54:05.029Z,21.65
2022-12-03T21:59:07.375Z,23.92
2022-12-03T22:04:09.205Z,23.80
2022-12-03T22:09:11.045Z,23.70
2022-12-03T22:14:13.426Z,24.80
2022-12-03T22:19:15.198Z,28.98
2022-12-03T22:24:18.865Z,28.08
2022-12-03T22:29:20.685Z,25.65
2022-12-03T22:34:22.486Z,27.75
2022-12-03T22:39:24.491Z,29.55
2022-12-03T22:44:26.406Z,27.73
2022-12-03T22:49:28.376Z,26.08
2022-12-03T22:54:30.257Z,25.20
2022-12-03T22:59:32.127Z,31.63
2022-12-03T23:04:34.012Z,27.88
2022-12-03T23:09:35.893Z,34.65
2022-12-03T23:14:37.651Z,27.02
2022-12-03T23:19:39.428Z,23.85
2022-12-03T23:24:41.258Z,20.30
2022-12-03T23:29:43.046Z,22.02
2022-12-03T23:34:44.896Z,17.77
2022-12-03T23:39:49.678Z,15.85
2022-12-03T23:44:51.582Z,17.30
2022-12-03T23:49:53.727Z,17.63
2022-12-03T23:54:55.668Z,19.35
2022-12-03T23:59:57.711Z,20.70
